createdAt,value
2019-05-29T00:02:18.456Z,100197.59
2019-05-29T00:05:21.577Z,100198.01
2019-05-29T00:08:24.481Z,100199.17
2019-05-29T00:11:27.415Z,100202.75
2019-05-29T00:14:32.891Z,100197.70
2019-05-29T00:17:36.169Z,100204.81
2019-05-29T00:20:39.388Z,100208.00
2019-05-29T00:23:42.887Z,100209.52
2019-05-29T00:26:45.924Z,100210.41
2019-05-29T00:29:49.292Z,100212.61
2019-05-29T00:32:52.948Z,100216.02
2019-05-29T00:35:56.224Z,100228.92
2019-05-29T00:38:59.865Z,100227.77
2019-05-29T00:42:03.012Z,100225.38
2019-05-29T00:45:07.291Z,100233.30
2019-05-29T00:48:11.648Z,100233.58
2019-05-29T00:51:15.386Z,100237.61
2019-05-29T00:54:18.556Z,100239.81
2019-05-29T00:57:21.627Z,100252.75
2019-05-29T01:00:24.885Z,100245.87
2019-05-29T01:03:28.110Z,100255.41
2019-05-29T01:06:31.038Z,100251.31
2019-05-29T01:09:34.265Z,100253.88
2019-05-29T01:12:37.210Z,100253.48
2019-05-29T01:15:40.121Z,100259.58
2019-05-29T01:18:43.068Z,100262.70
2019-05-29T01:21:46.351Z,100260.39
2019-05-29T01:24:49.675Z,100270.24
2019-05-29T01:27:52.891Z,100269.47
2019-05-29T01:30:56.210Z,100276.97
2019-05-29T01:34:00.146Z,100281.77
2019-05-29T01:37:03.306Z,100277.37
2019-05-29T01:40:19.263Z,100283.59
2019-05-29T01:43:11.419Z,100283.80
2019-05-29T01:46:15.221Z,100294.91
2019-05-29T01:49:19.614Z,100286.52
2019-05-29T01:52:23.810Z,100291.89
2019-05-29T01:55:27.900Z,100298.86
2019-05-29T01:58:30.952Z,100298.77
2019-05-29T02:01:34.159Z,100309.35
2019-05-29T02:04:37.042Z,100314.69
2019-05-29T02:07:39.975Z,100311.10
2019-05-29T02:10:42.879Z,100320.65
2019-05-29T02:13:45.836Z,100315.76
2019-05-29T02:16:49.413Z,100315.45
2019-05-29T02:19:53.289Z,100318.19
2019-05-29T02:22:56.192Z,100327.12
2019-05-29T02:25:59.109Z,100328.84
2019-05-29T02:29:02.140Z,100331.66
2019-05-29T02:32:05.331Z,100337.30
2019-05-29T02:35:09.936Z,100333.66
2019-05-29T02:38:12.923Z,100344.88
2019-05-29T02:41:15.850Z,100345.53
2019-05-29T02:44:19.273Z,100346.70
2019-05-29T02:47:23.569Z,100346.59
2019-05-29T02:50:29.326Z,100342.41
2019-05-29T02:53:32.585Z,100340.19
2019-05-29T02:56:36.159Z,100349.63
2019-05-29T02:59:39.409Z,100360.91
2019-05-29T03:02:42.336Z,100360.17
2019-05-29T03:05:45.840Z,100374.25
2019-05-29T03:08:50.807Z,100379.03
2019-05-29T03:11:54.777Z,100372.55
2019-05-29T03:14:58.310Z,100380.72
2019-05-29T03:18:01.871Z,100377.95
2019-05-29T03:21:05.118Z,100378.52
2019-05-29T03:24:08.032Z,100390.50
2019-05-29T03:27:10.959Z,100387.65
2019-05-29T03:30:14.657Z,100395.86
2019-05-29T03:33:17.856Z,100402.34
2019-05-29T03:36:21.038Z,100401.83
2019-05-29T03:39:23.943Z,100399.72
2019-05-29T03:42:28.311Z,100404.75
2019-05-29T03:45:34.069Z,100408.05
2019-05-29T03:48:38.366Z,100410.56
2019-05-29T03:51:42.029Z,100412.39
2019-05-29T03:54:45.312Z,100408.80
2019-05-29T03:57:48.222Z,100407.90
2019-05-29T04:00:52.254Z,100410.41
2019-05-29T04:03:55.575Z,100421.23
2019-05-29T04:06:58.497Z,100421.80
2019-05-29T04:10:01.770Z,100422.68
2019-05-29T04:13:05.765Z,100432.30
2019-05-29T04:16:10.862Z,100431.70
2019-05-29T04:19:15.249Z,100436.48
2019-05-29T04:22:24.624Z,100446.13
2019-05-29T04:25:37.176Z,100444.58
2019-05-29T04:28:39.046Z,100446.70
2019-05-29T04:31:42.363Z,100449.63
2019-05-29T04:34:45.277Z,100454.19
2019-05-29T04:37:48.538Z,100463.13
2019-05-29T04:40:51.497Z,100465.92
2019-05-29T04:43:57.178Z,100463.94
2019-05-29T04:47:10.499Z,100465.56
2019-05-29T04:50:04.815Z,100470.48
2019-05-29T04:53:07.751Z,100476.06
2019-05-29T04:56:10.666Z,100489.01
2019-05-29T04:59:14.025Z,100483.19
2019-05-29T05:02:17.527Z,100489.20
2019-05-29T05:05:20.790Z,100498.59
2019-05-29T05:08:24.085Z,100498.93
2019-05-29T05:11:27.643Z,100502.72
2019-05-29T05:14:31.516Z,100511.59
2019-05-29T05:17:36.012Z,100511.23
2019-05-29T05:20:40.347Z,100512.53
2019-05-29T05:23:43.556Z,100510.08
2019-05-29T05:26:47.079Z,100515.53
2019-05-29T05:29:50.647Z,100515.47
2019-05-29T05:32:53.599Z,100517.86
2019-05-29T05:35:56.922Z,100527.72
2019-05-29T05:39:00.538Z,100534.59
2019-05-29T05:42:03.474Z,100533.35
2019-05-29T05:45:07.997Z,100537.41
2019-05-29T05:48:10.946Z,100538.58
2019-05-29T05:51:13.881Z,100538.95
2019-05-29T05:54:17.190Z,100546.33
2019-05-29T05:57:20.425Z,100544.86
2019-05-29T06:00:34.000Z,100550.75
2019-05-29T06:03:37.927Z,100555.17
2019-05-29T06:06:42.290Z,100565.59
2019-05-29T06:09:46.016Z,100564.18
2019-05-29T06:12:49.687Z,100565.50
2019-05-29T06:15:52.872Z,100570.52
2019-05-29T06:18:56.180Z,100573.98
2019-05-29T06:21:59.085Z,100571.68
2019-05-29T06:25:02.947Z,100575.19
2019-05-29T06:28:05.912Z,100569.30
2019-05-29T06:31:08.894Z,100578.30
2019-05-29T06:34:12.147Z,100577.77
2019-05-29T06:37:15.077Z,100582.95
2019-05-29T06:40:40.134Z,100581.19
2019-05-29T06:43:44.308Z,100593.83
2019-05-29T06:46:47.868Z,100586.86
2019-05-29T06:49:51.084Z,100586.14
2019-05-29T06:52:55.009Z,100592.86
2019-05-29T06:55:59.446Z,100595.28
2019-05-29T06:59:03.275Z,100594.14
2019-05-29T07:02:06.277Z,100600.58
2019-05-29T07:05:11.225Z,100591.45
2019-05-29T07:08:20.844Z,100603.66
2019-05-29T07:11:19.803Z,100593.86
2019-05-29T07:14:22.732Z,100596.92
2019-05-29T07:17:26.809Z,100594.27
2019-05-29T07:20:30.138Z,100602.67
2019-05-29T07:23:33.651Z,100611.86
2019-05-29T07:26:36.990Z,100611.00
2019-05-29T07:29:41.190Z,100608.19
2019-05-29T07:32:50.966Z,100614.45
2019-05-29T07:35:49.050Z,100619.55
2019-05-29T07:39:02.473Z,100609.52
2019-05-29T07:41:56.819Z,100614.40
2019-05-29T07:45:00.105Z,100614.27
2019-05-29T07:48:03.539Z,100617.55
2019-05-29T07:51:07.617Z,100621.30
2019-05-29T07:54:10.904Z,100634.95
2019-05-29T07:57:13.954Z,100638.13
2019-05-29T08:00:18.246Z,100636.45
2019-05-29T08:03:22.034Z,100642.59
2019-05-29T08:06:25.400Z,100644.37
2019-05-29T08:09:28.314Z,100642.33
2019-05-29T08:12:31.901Z,100647.25
2019-05-29T08:15:51.204Z,100644.66
2019-05-29T08:18:41.676Z,100648.47
2019-05-29T08:21:46.499Z,100655.17
2019-05-29T08:24:51.063Z,100651.98
2019-05-29T08:27:54.165Z,100660.47
2019-05-29T08:30:57.104Z,100659.41
2019-05-29T08:34:00.734Z,100665.02
2019-05-29T08:37:07.057Z,100663.39
2019-05-29T08:40:09.029Z,100678.24
2019-05-29T08:43:11.956Z,100663.86
2019-05-29T08:46:14.868Z,100668.11
2019-05-29T08:49:17.823Z,100670.02
2019-05-29T08:52:20.996Z,100665.66
2019-05-29T08:55:23.928Z,100671.37
2019-05-29T08:58:27.795Z,100665.14
2019-05-29T09:01:30.726Z,100670.67
2019-05-29T09:04:33.651Z,100670.92
2019-05-29T09:07:36.599Z,100672.53
2019-05-29T09:10:39.868Z,100674.10
2019-05-29T09:13:42.899Z,100679.27
2019-05-29T09:16:46.309Z,100680.89
2019-05-29T09:19:56.633Z,100678.69
2019-05-29T09:23:00.727Z,100688.08
2019-05-29T09:26:14.099Z,100682.73
2019-05-29T09:29:09.323Z,100676.08
2019-05-29T09:32:13.484Z,100673.56
2019-05-29T09:35:19.668Z,100673.22
2019-05-29T09:38:23.390Z,100679.77
2019-05-29T09:41:26.334Z,100675.86
2019-05-29T09:44:38.362Z,100673.61
2019-05-29T09:47:35.065Z,100674.88
2019-05-29T09:50:49.979Z,100668.46
2019-05-29T09:53:43.520Z,100677.63
2019-05-29T09:56:46.853Z,100674.37
2019-05-29T09:59:50.833Z,100668.55
2019-05-29T10:02:54.439Z,100668.07
2019-05-29T10:05:59.474Z,100674.92
2019-05-29T10:09:05.757Z,100678.92
2019-05-29T10:12:08.787Z,100684.89
2019-05-29T10:15:12.208Z,100680.70
2019-05-29T10:18:31.404Z,100686.86
2019-05-29T10:21:19.951Z,100683.50
2019-05-29T10:24:23.618Z,100679.08
2019-05-29T10:27:26.849Z,100683.68
2019-05-29T10:30:30.319Z,100687.05
2019-05-29T10:33:33.234Z,100692.32
2019-05-29T10:36:36.528Z,100691.55
2019-05-29T10:39:39.782Z,100693.47
2019-05-29T10:42:43.121Z,100689.85
2019-05-29T10:45:47.952Z,100681.16
2019-05-29T10:48:54.241Z,100685.84
2019-05-29T10:52:11.896Z,100683.45
2019-05-29T10:55:00.967Z,100680.99
2019-05-29T10:58:03.961Z,100681.14
2019-05-29T11:01:06.936Z,100678.52
2019-05-29T11:04:09.875Z,100674.22
2019-05-29T11:07:13.213Z,100670.96
2019-05-29T11:10:17.348Z,100671.38
2019-05-29T11:13:20.264Z,100669.50
2019-05-29T11:16:23.543Z,100675.34
2019-05-29T11:19:26.757Z,100678.16
2019-05-29T11:22:30.311Z,100662.92
2019-05-29T11:25:33.320Z,100666.14
2019-05-29T11:28:36.255Z,100673.40
2019-05-29T11:31:39.510Z,100668.17
2019-05-29T11:34:43.036Z,100674.95
2019-05-29T11:37:46.672Z,100670.86
2019-05-29T11:41:04.571Z,100672.67
2019-05-29T11:43:55.219Z,100667.98
2019-05-29T11:46:58.531Z,100666.42
2019-05-29T11:50:16.396Z,100653.30
2019-05-29T11:53:07.417Z,100665.95
2019-05-29T11:56:10.742Z,100662.50
2019-05-29T11:59:13.709Z,100658.36
2019-05-29T12:02:17.211Z,100657.02
2019-05-29T12:05:20.781Z,100654.33
2019-05-29T12:08:23.728Z,100655.17
2019-05-29T12:11:26.653Z,100661.11
2019-05-29T12:14:29.608Z,100646.18
2019-05-29T12:17:34.150Z,100651.33
2019-05-29T12:20:37.298Z,100644.11
2019-05-29T12:23:40.449Z,100644.37
2019-05-29T12:26:43.673Z,100643.71
2019-05-29T12:29:46.866Z,100639.80
2019-05-29T12:32:49.816Z,100644.52
2019-05-29T12:35:53.144Z,100642.02
2019-05-29T12:38:57.795Z,100640.34
2019-05-29T12:42:01.777Z,100634.56
2019-05-29T12:45:07.335Z,100637.00
2019-05-29T12:48:13.373Z,100634.43
2019-05-29T12:51:15.745Z,100632.14
2019-05-29T12:54:18.948Z,100630.53
2019-05-29T12:57:23.572Z,100636.83
2019-05-29T13:00:27.799Z,100631.38
2019-05-29T13:03:30.729Z,100627.22
2019-05-29T13:06:33.700Z,100633.27
2019-05-29T13:09:36.729Z,100634.09
2019-05-29T13:12:40.018Z,100629.30
2019-05-29T13:15:42.960Z,100627.30
2019-05-29T13:18:45.869Z,100630.56
2019-05-29T13:21:49.135Z,100625.81
2019-05-29T13:24:52.775Z,100624.99
2019-05-29T13:27:57.949Z,100618.94
2019-05-29T13:31:01.907Z,100611.53
2019-05-29T13:34:06.995Z,100617.38
2019-05-29T13:37:10.027Z,100619.37
2019-05-29T13:40:13.185Z,100618.88
2019-05-29T13:43:16.285Z,100617.55
2019-05-29T13:46:19.234Z,100605.05
2019-05-29T13:49:22.472Z,100612.56
2019-05-29T13:52:25.762Z,100607.33
2019-05-29T13:55:28.719Z,100607.32
2019-05-29T13:58:32.681Z,100595.38
2019-05-29T14:01:35.599Z,100596.05
2019-05-29T14:04:39.411Z,100596.05
2019-05-29T14:07:42.414Z,100587.64
2019-05-29T14:10:45.435Z,100590.73
2019-05-29T14:13:48.446Z,100589.00
2019-05-29T14:16:51.367Z,100583.30
2019-05-29T14:19:54.904Z,100577.24
2019-05-29T14:22:58.182Z,100582.56
2019-05-29T14:26:02.353Z,100586.03
2019-05-29T14:29:06.006Z,100584.48
2019-05-29T14:32:09.436Z,100577.00
2019-05-29T14:35:13.581Z,100579.56
2019-05-29T14:38:16.998Z,100582.99
2019-05-29T14:41:20.266Z,100581.81
2019-05-29T14:44:23.494Z,100586.45
2019-05-29T14:47:26.502Z,100584.71
2019-05-29T14:50:29.722Z,100582.09
2019-05-29T14:53:34.107Z,100580.96
2019-05-29T14:56:37.778Z,100583.02
2019-05-29T14:59:41.224Z,100582.11
2019-05-29T15:02:44.806Z,100574.08
2019-05-29T15:05:47.771Z,100579.17
2019-05-29T15:08:51.042Z,100574.77
2019-05-29T15:11:53.943Z,100577.08
2019-05-29T15:14:56.877Z,100584.38
2019-05-29T15:17:59.865Z,100581.52
2019-05-29T15:21:03.096Z,100582.08
2019-05-29T15:24:07.298Z,100581.63
2019-05-29T15:27:10.341Z,100580.80
2019-05-29T15:30:22.023Z,100581.02
2019-05-29T15:33:19.818Z,100585.66
2019-05-29T15:36:22.774Z,100583.12
2019-05-29T15:39:26.045Z,100580.38
2019-05-29T15:42:29.075Z,100586.58
2019-05-29T15:45:32.400Z,100583.27
2019-05-29T15:48:35.313Z,100589.19
2019-05-29T15:51:38.501Z,100583.88
2019-05-29T15:54:41.425Z,100592.08
2019-05-29T15:57:44.342Z,100586.55
2019-05-29T16:00:47.740Z,100591.38
2019-05-29T16:03:50.703Z,100590.90
2019-05-29T16:06:55.206Z,100587.84
2019-05-29T16:09:59.207Z,100586.84
2019-05-29T16:13:02.177Z,100589.80
2019-05-29T16:16:05.497Z,100589.50
2019-05-29T16:19:09.963Z,100580.99
2019-05-29T16:22:14.372Z,100576.70
2019-05-29T16:25:17.366Z,100577.98
2019-05-29T16:28:21.488Z,100575.83
2019-05-29T16:31:24.652Z,100569.80
2019-05-29T16:34:27.570Z,100561.86
2019-05-29T16:37:31.887Z,100571.42
2019-05-29T16:40:34.800Z,100570.20
2019-05-29T16:43:38.005Z,100569.23
2019-05-29T16:46:40.913Z,100572.58
2019-05-29T16:49:43.883Z,100574.47
2019-05-29T16:52:47.071Z,100572.25
2019-05-29T16:55:53.654Z,100573.19
2019-05-29T16:58:54.812Z,100573.97
2019-05-29T17:01:57.987Z,100576.83
2019-05-29T17:05:01.308Z,100577.81
2019-05-29T17:08:04.411Z,100580.42
2019-05-29T17:11:07.534Z,100581.83
2019-05-29T17:14:10.724Z,100580.47
2019-05-29T17:17:15.230Z,100583.53
2019-05-29T17:20:37.218Z,100578.17
2019-05-29T17:23:40.609Z,100580.67
2019-05-29T17:26:43.867Z,100582.70
2019-05-29T17:29:47.071Z,100578.98
2019-05-29T17:32:49.997Z,100579.09
2019-05-29T17:35:53.017Z,100575.64
2019-05-29T17:38:56.175Z,100573.88
2019-05-29T17:42:00.294Z,100574.09
2019-05-29T17:45:04.398Z,100575.69
2019-05-29T17:48:07.773Z,100576.97
2019-05-29T17:51:11.480Z,100576.90
2019-05-29T17:54:15.801Z,100577.59
2019-05-29T17:57:20.237Z,100579.36
2019-05-29T18:00:26.570Z,100578.06
2019-05-29T18:03:29.796Z,100577.34
2019-05-29T18:06:32.820Z,100579.76
2019-05-29T18:09:36.888Z,100585.62
2019-05-29T18:12:39.784Z,100584.12
2019-05-29T18:15:43.097Z,100582.94
2019-05-29T18:18:47.045Z,100581.45
2019-05-29T18:21:50.286Z,100580.32
2019-05-29T18:24:53.548Z,100579.66
2019-05-29T18:27:56.722Z,100586.02
2019-05-29T18:31:00.041Z,100587.36
2019-05-29T18:34:03.157Z,100582.73
2019-05-29T18:37:06.424Z,100590.92
2019-05-29T18:40:12.846Z,100586.27
2019-05-29T18:43:16.021Z,100586.11
2019-05-29T18:46:18.984Z,100581.78
2019-05-29T18:49:22.283Z,100589.13
2019-05-29T18:52:25.638Z,100585.28
2019-05-29T18:55:29.127Z,100586.63
2019-05-29T18:58:32.361Z,100583.02
2019-05-29T19:01:36.853Z,100588.67
2019-05-29T19:04:39.748Z,100591.81
2019-05-29T19:07:42.699Z,100590.41
2019-05-29T19:10:46.953Z,100589.77
2019-05-29T19:13:50.274Z,100596.73
2019-05-29T19:16:53.352Z,100594.20
2019-05-29T19:19:56.600Z,100600.80
2019-05-29T19:22:59.838Z,100607.20
2019-05-29T19:26:03.504Z,100605.83
2019-05-29T19:29:06.807Z,100607.00
2019-05-29T19:32:10.108Z,100609.70
2019-05-29T19:35:13.519Z,100610.70
2019-05-29T19:38:16.754Z,100609.70
2019-05-29T19:41:20.037Z,100610.22
2019-05-29T19:44:24.142Z,100623.91
2019-05-29T19:47:27.138Z,100631.22
2019-05-29T19:50:30.915Z,100628.50
2019-05-29T19:53:35.547Z,100632.72
2019-05-29T19:56:39.142Z,100638.30
2019-05-29T19:59:42.444Z,100639.69
2019-05-29T20:02:45.692Z,100635.05
2019-05-29T20:05:49.061Z,100641.89
2019-05-29T20:08:52.312Z,100639.80
2019-05-29T20:11:55.834Z,100642.23
2019-05-29T20:14:59.128Z,100638.97
2019-05-29T20:18:02.125Z,100645.06
2019-05-29T20:21:05.044Z,100649.12
2019-05-29T20:24:07.992Z,100639.08
2019-05-29T20:27:10.963Z,100644.63
2019-05-29T20:30:18.603Z,100650.37
2019-05-29T20:33:21.849Z,100655.02
2019-05-29T20:36:24.784Z,100649.06
2019-05-29T20:39:28.115Z,100648.93
2019-05-29T20:42:32.129Z,100641.30
2019-05-29T20:45:35.610Z,100643.91
2019-05-29T20:48:38.784Z,100651.69
2019-05-29T20:51:42.332Z,100653.81
2019-05-29T20:54:45.760Z,100653.48
2019-05-29T20:57:48.682Z,100648.04
2019-05-29T21:00:51.945Z,100653.63
2019-05-29T21:03:55.338Z,100656.03
2019-05-29T21:06:59.127Z,100659.23
2019-05-29T21:10:02.098Z,100651.84
2019-05-29T21:13:05.219Z,100651.16
2019-05-29T21:16:08.148Z,100653.03
2019-05-29T21:19:12.073Z,100654.74
2019-05-29T21:22:15.500Z,100654.25
2019-05-29T21:25:19.362Z,100657.72
2019-05-29T21:28:22.802Z,100662.02
2019-05-29T21:31:26.376Z,100656.84
2019-05-29T21:34:29.960Z,100651.77
2019-05-29T21:37:32.893Z,100658.77
2019-05-29T21:40:36.335Z,100658.00
2019-05-29T21:43:40.629Z,100656.84
2019-05-29T21:46:45.036Z,100659.80
2019-05-29T21:49:48.267Z,100659.67
2019-05-29T21:52:52.750Z,100657.97
2019-05-29T21:55:56.048Z,100655.22
2019-05-29T21:59:03.886Z,100650.09
2019-05-29T22:02:05.163Z,100658.63
2019-05-29T22:05:08.583Z,100655.88
2019-05-29T22:08:11.612Z,100652.45
2019-05-29T22:11:14.622Z,100651.08
2019-05-29T22:14:18.351Z,100652.45
2019-05-29T22:17:21.898Z,100657.28
2019-05-29T22:20:24.840Z,100661.91
2019-05-29T22:23:28.380Z,100654.25
2019-05-29T22:26:31.494Z,100649.48
2019-05-29T22:29:34.609Z,100656.67
2019-05-29T22:32:37.682Z,100652.10
2019-05-29T22:35:40.739Z,100655.04
2019-05-29T22:38:43.957Z,100650.13
2019-05-29T22:41:47.312Z,100648.76
2019-05-29T22:44:51.617Z,100648.23
2019-05-29T22:47:55.746Z,100640.56
2019-05-29T22:50:59.943Z,100648.61
2019-05-29T22:54:03.060Z,100644.84
2019-05-29T22:57:06.028Z,100640.22
2019-05-29T23:00:11.207Z,100638.83
2019-05-29T23:03:14.676Z,100640.91
2019-05-29T23:06:17.888Z,100638.16
2019-05-29T23:09:20.815Z,100640.19
2019-05-29T23:12:23.720Z,100638.88
2019-05-29T23:15:26.650Z,100636.66
2019-05-29T23:18:30.168Z,100633.50
2019-05-29T23:21:33.136Z,100637.20
2019-05-29T23:24:36.341Z,100632.72
2019-05-29T23:27:39.566Z,100630.73
2019-05-29T23:30:42.935Z,100629.71
2019-05-29T23:33:46.144Z,100628.34
2019-05-29T23:36:50.006Z,100620.34
2019-05-29T23:39:53.366Z,100617.55
2019-05-29T23:42:57.338Z,100624.06
2019-05-29T23:46:02.423Z,100623.75
2019-05-29T23:49:06.596Z,100620.63
2019-05-29T23:52:09.891Z,100614.67
2019-05-29T23:55:13.166Z,100615.63
2019-05-29T23:58:16.744Z,100604.06
